Terminal Aerodrome Forecast
Issued by NWS

Home | Current Version | Previous Version | Text Only | Print | Product List | Glossary On
Versions: 1 2 3 4 5 6 7 8 9 10 11 12 13 14 15 16 17
000
FTUS43 KICT 170100 AAA
TAFHUT
TAF AMD
KHUT 170152Z 1702/1724 01012KT P6SM BKN150
     FM170900 04010KT P6SM VCSH OVC100
      TEMPO 1714/1718 6SM -RA OVC040=

USA.gov is the U.S. government's official web portal to all federal, state and local government web resources and services.